sensor_id;sensor_type;location;lat;lon;timestamp;temperature;humidity
11005;DHT22;5555;59.622;16.556;2022-09-12T00:01:58;10.00;99.90
11005;DHT22;5555;59.622;16.556;2022-09-12T00:04:23;10.00;99.90
11005;DHT22;5555;59.622;16.556;2022-09-12T00:06:51;10.00;99.90
11005;DHT22;5555;59.622;16.556;2022-09-12T00:09:16;9.90;99.90
11005;DHT22;5555;59.622;16.556;2022-09-12T00:11:44;9.80;99.90
11005;DHT22;5555;59.622;16.556;2022-09-12T00:14:12;9.80;99.90
11005;DHT22;5555;59.622;16.556;2022-09-12T00:16:38;9.70;99.90
11005;DHT22;5555;59.622;16.556;2022-09-12T00:19:05;9.60;99.90
11005;DHT22;5555;59.622;16.556;2022-09-12T00:21:35;9.60;99.90
11005;DHT22;5555;59.622;16.556;2022-09-12T00:24:01;9.60;99.90
11005;DHT22;5555;59.622;16.556;2022-09-12T00:26:27;9.60;99.90
11005;DHT22;5555;59.622;16.556;2022-09-12T00:28:53;9.50;99.90
11005;DHT22;5555;59.622;16.556;2022-09-12T00:31:21;9.50;99.90
11005;DHT22;5555;59.622;16.556;2022-09-12T00:33:53;9.50;99.90
11005;DHT22;5555;59.622;16.556;2022-09-12T00:36:21;9.40;99.90
11005;DHT22;5555;59.622;16.556;2022-09-12T00:38:49;9.30;99.90
11005;DHT22;5555;59.622;16.556;2022-09-12T00:41:27;9.30;99.90
11005;DHT22;5555;59.622;16.556;2022-09-12T00:44:02;9.30;99.90
11005;DHT22;5555;59.622;16.556;2022-09-12T00:49:13;9.10;99.90
11005;DHT22;5555;59.622;16.556;2022-09-12T00:51:43;9.10;99.90
11005;DHT22;5555;59.622;16.556;2022-09-12T00:54:14;9.10;99.90
11005;DHT22;5555;59.622;16.556;2022-09-12T00:56:43;9.00;99.90
11005;DHT22;5555;59.622;16.556;2022-09-12T00:59:20;9.10;99.90
11005;DHT22;5555;59.622;16.556;2022-09-12T01:01:48;9.10;99.90
11005;DHT22;5555;59.622;16.556;2022-09-12T01:04:16;9.00;99.90
11005;DHT22;5555;59.622;16.556;2022-09-12T01:06:43;9.00;99.90
11005;DHT22;5555;59.622;16.556;2022-09-12T01:09:11;8.90;99.90
11005;DHT22;5555;59.622;16.556;2022-09-12T01:11:39;8.90;99.90
11005;DHT22;5555;59.622;16.556;2022-09-12T01:14:06;8.90;99.90
11005;DHT22;5555;59.622;16.556;2022-09-12T01:16:35;8.90;99.90
11005;DHT22;5555;59.622;16.556;2022-09-12T01:35:24;8.70;99.90
11005;DHT22;5555;59.622;16.556;2022-09-12T01:53:50;8.60;99.90
11005;DHT22;5555;59.622;16.556;2022-09-12T01:56:26;8.60;99.90
11005;DHT22;5555;59.622;16.556;2022-09-12T01:59:02;8.50;99.90
11005;DHT22;5555;59.622;16.556;2022-09-12T02:01:40;8.50;99.90
11005;DHT22;5555;59.622;16.556;2022-09-12T02:04:23;8.50;99.90
11005;DHT22;5555;59.622;16.556;2022-09-12T02:07:00;8.40;99.90
11005;DHT22;5555;59.622;16.556;2022-09-12T02:11:59;8.40;99.90
11005;DHT22;5555;59.622;16.556;2022-09-12T02:14:29;8.40;99.90
11005;DHT22;5555;59.622;16.556;2022-09-12T02:17:13;8.50;99.90
11005;DHT22;5555;59.622;16.556;2022-09-12T02:19:42;8.50;99.90
11005;DHT22;5555;59.622;16.556;2022-09-12T02:22:14;8.50;99.90
11005;DHT22;5555;59.622;16.556;2022-09-12T02:24:45;8.50;99.90
11005;DHT22;5555;59.622;16.556;2022-09-12T02:29:39;8.50;99.90
11005;DHT22;5555;59.622;16.556;2022-09-12T02:32:19;8.60;99.90
11005;DHT22;5555;59.622;16.556;2022-09-12T02:39:55;8.70;99.90
11005;DHT22;5555;59.622;16.556;2022-09-12T02:42:22;8.80;99.90
11005;DHT22;5555;59.622;16.556;2022-09-12T02:44:49;8.80;99.90
11005;DHT22;5555;59.622;16.556;2022-09-12T02:49:53;8.90;99.90
11005;DHT22;5555;59.622;16.556;2022-09-12T02:52:20;9.00;99.90
11005;DHT22;5555;59.622;16.556;2022-09-12T02:54:46;9.00;99.90
11005;DHT22;5555;59.622;16.556;2022-09-12T02:57:17;9.00;99.90
11005;DHT22;5555;59.622;16.556;2022-09-12T02:59:44;9.10;99.90
11005;DHT22;5555;59.622;16.556;2022-09-12T03:02:21;9.20;99.90
11005;DHT22;5555;59.622;16.556;2022-09-12T03:05:11;9.30;99.90
11005;DHT22;5555;59.622;16.556;2022-09-12T03:10:39;9.40;99.90
11005;DHT22;5555;59.622;16.556;2022-09-12T03:16:05;9.40;99.90
11005;DHT22;5555;59.622;16.556;2022-09-12T03:23:50;9.60;99.90
11005;DHT22;5555;59.622;16.556;2022-09-12T03:26:27;9.70;99.90
11005;DHT22;5555;59.622;16.556;2022-09-12T03:28:55;9.90;99.90
11005;DHT22;5555;59.622;16.556;2022-09-12T03:31:22;9.90;99.90
11005;DHT22;5555;59.622;16.556;2022-09-12T03:33:47;10.00;99.90
11005;DHT22;5555;59.622;16.556;2022-09-12T03:36:23;10.10;99.90
11005;DHT22;5555;59.622;16.556;2022-09-12T03:38:49;10.10;99.90
11005;DHT22;5555;59.622;16.556;2022-09-12T03:41:15;10.20;99.90
11005;DHT22;5555;59.622;16.556;2022-09-12T03:43:41;10.20;99.90
11005;DHT22;5555;59.622;16.556;2022-09-12T03:46:06;10.30;99.90
11005;DHT22;5555;59.622;16.556;2022-09-12T03:48:32;10.20;99.90
11005;DHT22;5555;59.622;16.556;2022-09-12T03:51:06;10.40;99.90
11005;DHT22;5555;59.622;16.556;2022-09-12T03:53:32;10.40;99.90
11005;DHT22;5555;59.622;16.556;2022-09-12T03:55:58;10.50;99.90
11005;DHT22;5555;59.622;16.556;2022-09-12T03:58:29;10.60;99.90
11005;DHT22;5555;59.622;16.556;2022-09-12T04:00:55;10.70;99.90
11005;DHT22;5555;59.622;16.556;2022-09-12T04:03:20;10.70;99.90
11005;DHT22;5555;59.622;16.556;2022-09-12T04:05:46;10.70;99.90
11005;DHT22;5555;59.622;16.556;2022-09-12T04:08:12;10.70;99.90
11005;DHT22;5555;59.622;16.556;2022-09-12T04:10:38;10.80;99.90
11005;DHT22;5555;59.622;16.556;2022-09-12T04:13:04;10.80;99.90
11005;DHT22;5555;59.622;16.556;2022-09-12T04:15:29;10.70;99.90
11005;DHT22;5555;59.622;16.556;2022-09-12T04:17:55;10.80;99.90
11005;DHT22;5555;59.622;16.556;2022-09-12T04:20:21;10.80;99.90
11005;DHT22;5555;59.622;16.556;2022-09-12T04:22:46;10.80;99.90
11005;DHT22;5555;59.622;16.556;2022-09-12T04:25:12;10.80;99.90
11005;DHT22;5555;59.622;16.556;2022-09-12T04:27:38;10.90;99.90
11005;DHT22;5555;59.622;16.556;2022-09-12T04:30:04;10.90;99.90
11005;DHT22;5555;59.622;16.556;2022-09-12T04:32:30;10.90;99.90
11005;DHT22;5555;59.622;16.556;2022-09-12T04:34:56;11.00;99.90
11005;DHT22;5555;59.622;16.556;2022-09-12T04:37:22;11.00;99.90
11005;DHT22;5555;59.622;16.556;2022-09-12T04:39:49;11.10;99.90
11005;DHT22;5555;59.622;16.556;2022-09-12T04:42:16;11.10;99.90
11005;DHT22;5555;59.622;16.556;2022-09-12T04:44:41;11.10;99.90
11005;DHT22;5555;59.622;16.556;2022-09-12T04:47:07;11.20;99.90
11005;DHT22;5555;59.622;16.556;2022-09-12T04:49:33;11.20;99.90
11005;DHT22;5555;59.622;16.556;2022-09-12T04:51:59;11.30;99.90
11005;DHT22;5555;59.622;16.556;2022-09-12T04:54:25;11.30;99.90
11005;DHT22;5555;59.622;16.556;2022-09-12T04:56:51;11.30;99.90
11005;DHT22;5555;59.622;16.556;2022-09-12T04:59:18;11.30;99.90
11005;DHT22;5555;59.622;16.556;2022-09-12T05:01:44;11.30;99.90
11005;DHT22;5555;59.622;16.556;2022-09-12T05:04:11;11.30;99.90
11005;DHT22;5555;59.622;16.556;2022-09-12T05:06:38;11.30;99.90
11005;DHT22;5555;59.622;16.556;2022-09-12T05:09:06;11.30;99.90
11005;DHT22;5555;59.622;16.556;2022-09-12T05:11:34;11.40;99.90
11005;DHT22;5555;59.622;16.556;2022-09-12T05:14:00;11.40;99.90
11005;DHT22;5555;59.622;16.556;2022-09-12T05:16:27;11.50;99.90
11005;DHT22;5555;59.622;16.556;2022-09-12T05:18:55;11.50;99.90
11005;DHT22;5555;59.622;16.556;2022-09-12T05:21:22;11.60;99.90
11005;DHT22;5555;59.622;16.556;2022-09-12T05:23:55;11.60;99.90
11005;DHT22;5555;59.622;16.556;2022-09-12T05:26:21;11.60;99.90
11005;DHT22;5555;59.622;16.556;2022-09-12T05:28:48;11.70;99.90
11005;DHT22;5555;59.622;16.556;2022-09-12T05:31:17;11.70;99.90
11005;DHT22;5555;59.622;16.556;2022-09-12T05:33:45;11.70;99.90
11005;DHT22;5555;59.622;16.556;2022-09-12T05:36:17;11.80;99.90
11005;DHT22;5555;59.622;16.556;2022-09-12T05:38:43;11.80;99.90
11005;DHT22;5555;59.622;16.556;2022-09-12T05:41:15;11.90;99.90
11005;DHT22;5555;59.622;16.556;2022-09-12T05:43:42;11.80;99.90
11005;DHT22;5555;59.622;16.556;2022-09-12T05:46:10;11.90;99.90
11005;DHT22;5555;59.622;16.556;2022-09-12T05:48:38;11.90;99.90
11005;DHT22;5555;59.622;16.556;2022-09-12T05:53:39;12.10;99.90
11005;DHT22;5555;59.622;16.556;2022-09-12T05:56:16;12.10;99.90
11005;DHT22;5555;59.622;16.556;2022-09-12T05:58:44;12.20;99.90
11005;DHT22;5555;59.622;16.556;2022-09-12T06:01:16;12.30;99.90
11005;DHT22;5555;59.622;16.556;2022-09-12T06:03:44;12.40;99.90
11005;DHT22;5555;59.622;16.556;2022-09-12T06:06:11;12.50;99.90
11005;DHT22;5555;59.622;16.556;2022-09-12T06:08:39;12.50;99.90
11005;DHT22;5555;59.622;16.556;2022-09-12T06:11:06;12.60;99.90
11005;DHT22;5555;59.622;16.556;2022-09-12T06:13:34;12.70;99.90
11005;DHT22;5555;59.622;16.556;2022-09-12T06:16:09;12.80;99.90
11005;DHT22;5555;59.622;16.556;2022-09-12T06:18:36;13.00;99.90
11005;DHT22;5555;59.622;16.556;2022-09-12T06:21:04;12.90;99.90
11005;DHT22;5555;59.622;16.556;2022-09-12T06:23:29;12.90;99.90
11005;DHT22;5555;59.622;16.556;2022-09-12T06:25:55;13.00;99.90
11005;DHT22;5555;59.622;16.556;2022-09-12T06:28:21;13.10;99.90
11005;DHT22;5555;59.622;16.556;2022-09-12T06:30:46;13.10;99.90
11005;DHT22;5555;59.622;16.556;2022-09-12T06:33:13;13.20;99.90
11005;DHT22;5555;59.622;16.556;2022-09-12T06:35:39;13.20;99.90
11005;DHT22;5555;59.622;16.556;2022-09-12T06:38:05;13.20;99.90
11005;DHT22;5555;59.622;16.556;2022-09-12T06:40:32;13.40;99.90
11005;DHT22;5555;59.622;16.556;2022-09-12T06:42:58;13.40;99.90
11005;DHT22;5555;59.622;16.556;2022-09-12T06:45:23;13.60;99.90
11005;DHT22;5555;59.622;16.556;2022-09-12T06:47:50;13.70;99.90
11005;DHT22;5555;59.622;16.556;2022-09-12T06:50:16;13.80;99.90
11005;DHT22;5555;59.622;16.556;2022-09-12T06:52:42;13.80;99.90
11005;DHT22;5555;59.622;16.556;2022-09-12T06:55:09;13.80;99.90
11005;DHT22;5555;59.622;16.556;2022-09-12T06:57:34;13.90;99.90
11005;DHT22;5555;59.622;16.556;2022-09-12T07:00:06;14.10;99.90
11005;DHT22;5555;59.622;16.556;2022-09-12T07:02:32;14.20;99.90
11005;DHT22;5555;59.622;16.556;2022-09-12T07:04:58;14.30;99.90
11005;DHT22;5555;59.622;16.556;2022-09-12T07:07:23;14.30;99.90
11005;DHT22;5555;59.622;16.556;2022-09-12T07:09:49;14.60;99.90
11005;DHT22;5555;59.622;16.556;2022-09-12T07:12:15;14.70;99.90
11005;DHT22;5555;59.622;16.556;2022-09-12T07:14:40;14.90;99.90
11005;DHT22;5555;59.622;16.556;2022-09-12T07:17:06;14.90;99.90
11005;DHT22;5555;59.622;16.556;2022-09-12T07:19:33;14.80;99.90
11005;DHT22;5555;59.622;16.556;2022-09-12T07:21:59;15.00;99.90
11005;DHT22;5555;59.622;16.556;2022-09-12T07:24:25;15.20;99.90
11005;DHT22;5555;59.622;16.556;2022-09-12T07:26:50;15.40;99.90
11005;DHT22;5555;59.622;16.556;2022-09-12T07:29:16;15.40;99.90
11005;DHT22;5555;59.622;16.556;2022-09-12T07:31:42;15.40;99.90
11005;DHT22;5555;59.622;16.556;2022-09-12T07:34:08;15.50;99.90
11005;DHT22;5555;59.622;16.556;2022-09-12T07:36:34;15.70;99.90
11005;DHT22;5555;59.622;16.556;2022-09-12T07:38:59;15.60;99.90
11005;DHT22;5555;59.622;16.556;2022-09-12T07:41:27;15.60;99.90
11005;DHT22;5555;59.622;16.556;2022-09-12T07:43:58;15.70;99.90
11005;DHT22;5555;59.622;16.556;2022-09-12T07:46:26;15.90;99.90
11005;DHT22;5555;59.622;16.556;2022-09-12T07:48:52;15.90;99.90
11005;DHT22;5555;59.622;16.556;2022-09-12T07:51:19;15.90;99.90
11005;DHT22;5555;59.622;16.556;2022-09-12T07:53:45;15.90;99.90
11005;DHT22;5555;59.622;16.556;2022-09-12T07:56:12;15.90;99.90
11005;DHT22;5555;59.622;16.556;2022-09-12T07:58:39;16.00;99.90
11005;DHT22;5555;59.622;16.556;2022-09-12T08:01:07;16.10;99.90
11005;DHT22;5555;59.622;16.556;2022-09-12T08:03:41;16.10;99.90
11005;DHT22;5555;59.622;16.556;2022-09-12T08:06:13;16.10;99.90
11005;DHT22;5555;59.622;16.556;2022-09-12T08:08:39;16.10;99.90
11005;DHT22;5555;59.622;16.556;2022-09-12T08:11:07;16.30;99.90
11005;DHT22;5555;59.622;16.556;2022-09-12T08:13:35;16.40;99.90
11005;DHT22;5555;59.622;16.556;2022-09-12T08:16:04;16.50;99.90
11005;DHT22;5555;59.622;16.556;2022-09-12T08:18:31;16.50;99.90
11005;DHT22;5555;59.622;16.556;2022-09-12T08:21:02;16.50;99.90
11005;DHT22;5555;59.622;16.556;2022-09-12T08:23:28;16.40;99.90
11005;DHT22;5555;59.622;16.556;2022-09-12T08:25:56;16.30;99.90
11005;DHT22;5555;59.622;16.556;2022-09-12T08:28:26;16.40;99.90
11005;DHT22;5555;59.622;16.556;2022-09-12T08:30:53;16.70;99.90
11005;DHT22;5555;59.622;16.556;2022-09-12T08:33:19;17.00;99.90
11005;DHT22;5555;59.622;16.556;2022-09-12T08:35:46;17.10;99.90
11005;DHT22;5555;59.622;16.556;2022-09-12T08:38:12;17.30;99.90
11005;DHT22;5555;59.622;16.556;2022-09-12T08:40:52;17.50;99.90
11005;DHT22;5555;59.622;16.556;2022-09-12T08:46:22;17.50;99.90
11005;DHT22;5555;59.622;16.556;2022-09-12T08:48:49;17.40;99.90
11005;DHT22;5555;59.622;16.556;2022-09-12T08:51:18;17.70;99.90
11005;DHT22;5555;59.622;16.556;2022-09-12T08:53:46;17.60;99.90
11005;DHT22;5555;59.622;16.556;2022-09-12T08:56:14;17.70;99.90
11005;DHT22;5555;59.622;16.556;2022-09-12T08:58:42;17.80;99.90
11005;DHT22;5555;59.622;16.556;2022-09-12T09:04:15;17.60;99.90
11005;DHT22;5555;59.622;16.556;2022-09-12T09:07:18;17.40;99.90
11005;DHT22;5555;59.622;16.556;2022-09-12T09:13:29;17.70;99.90
11005;DHT22;5555;59.622;16.556;2022-09-12T09:18:57;18.10;99.90
11005;DHT22;5555;59.622;16.556;2022-09-12T09:21:47;18.50;99.90
11005;DHT22;5555;59.622;16.556;2022-09-12T09:24:19;18.70;99.90
11005;DHT22;5555;59.622;16.556;2022-09-12T09:26:59;18.70;99.90
11005;DHT22;5555;59.622;16.556;2022-09-12T09:29:35;18.80;99.90
11005;DHT22;5555;59.622;16.556;2022-09-12T09:32:05;18.60;99.90
11005;DHT22;5555;59.622;16.556;2022-09-12T09:34:34;18.50;99.90
11005;DHT22;5555;59.622;16.556;2022-09-12T09:37:19;18.60;99.90
11005;DHT22;5555;59.622;16.556;2022-09-12T09:45:19;19.00;99.90
11005;DHT22;5555;59.622;16.556;2022-09-12T09:50:39;18.80;99.90
11005;DHT22;5555;59.622;16.556;2022-09-12T09:53:06;18.50;99.90
11005;DHT22;5555;59.622;16.556;2022-09-12T09:55:40;18.50;99.90
11005;DHT22;5555;59.622;16.556;2022-09-12T09:58:07;18.60;99.90
11005;DHT22;5555;59.622;16.556;2022-09-12T10:00:37;18.80;99.90
11005;DHT22;5555;59.622;16.556;2022-09-12T10:05:31;19.30;99.90
11005;DHT22;5555;59.622;16.556;2022-09-12T10:07:57;19.30;99.90
11005;DHT22;5555;59.622;16.556;2022-09-12T10:10:24;19.00;99.90
11005;DHT22;5555;59.622;16.556;2022-09-12T10:12:50;19.00;99.90
11005;DHT22;5555;59.622;16.556;2022-09-12T10:15:30;18.90;99.90
11005;DHT22;5555;59.622;16.556;2022-09-12T10:17:56;19.10;99.90
11005;DHT22;5555;59.622;16.556;2022-09-12T10:20:41;19.00;99.90
11005;DHT22;5555;59.622;16.556;2022-09-12T10:25:54;18.90;99.90
11005;DHT22;5555;59.622;16.556;2022-09-12T10:28:34;19.10;99.90
11005;DHT22;5555;59.622;16.556;2022-09-12T10:31:02;19.20;99.90
11005;DHT22;5555;59.622;16.556;2022-09-12T10:33:28;19.40;99.90
11005;DHT22;5555;59.622;16.556;2022-09-12T10:35:55;19.50;99.90
11005;DHT22;5555;59.622;16.556;2022-09-12T10:38:27;19.20;99.90
11005;DHT22;5555;59.622;16.556;2022-09-12T10:41:07;19.40;99.90
11005;DHT22;5555;59.622;16.556;2022-09-12T10:43:36;19.80;99.90
11005;DHT22;5555;59.622;16.556;2022-09-12T10:48:41;19.80;99.90
11005;DHT22;5555;59.622;16.556;2022-09-12T10:53:55;19.50;99.90
11005;DHT22;5555;59.622;16.556;2022-09-12T10:56:35;19.70;99.90
11005;DHT22;5555;59.622;16.556;2022-09-12T11:01:54;19.80;99.90
11005;DHT22;5555;59.622;16.556;2022-09-12T11:12:18;19.60;99.90
11005;DHT22;5555;59.622;16.556;2022-09-12T11:14:54;19.90;99.90
11005;DHT22;5555;59.622;16.556;2022-09-12T11:17:40;20.10;99.90
11005;DHT22;5555;59.622;16.556;2022-09-12T11:20:34;20.50;99.90
11005;DHT22;5555;59.622;16.556;2022-09-12T11:29:15;20.50;99.90
11005;DHT22;5555;59.622;16.556;2022-09-12T11:34:10;20.70;99.90
11005;DHT22;5555;59.622;16.556;2022-09-12T11:39:38;20.90;99.90
11005;DHT22;5555;59.622;16.556;2022-09-12T11:42:09;21.40;99.90
11005;DHT22;5555;59.622;16.556;2022-09-12T11:44:44;22.10;99.90
11005;DHT22;5555;59.622;16.556;2022-09-12T11:47:12;22.20;99.90
11005;DHT22;5555;59.622;16.556;2022-09-12T11:49:45;22.20;99.90
11005;DHT22;5555;59.622;16.556;2022-09-12T11:52:15;22.10;99.90
11005;DHT22;5555;59.622;16.556;2022-09-12T11:54:44;21.70;99.90
11005;DHT22;5555;59.622;16.556;2022-09-12T12:00:06;22.80;99.90
11005;DHT22;5555;59.622;16.556;2022-09-12T12:07:55;23.60;99.90
11005;DHT22;5555;59.622;16.556;2022-09-12T12:10:39;24.00;99.90
11005;DHT22;5555;59.622;16.556;2022-09-12T12:18:26;22.30;99.90
11005;DHT22;5555;59.622;16.556;2022-09-12T12:20:53;22.60;99.90
11005;DHT22;5555;59.622;16.556;2022-09-12T12:23:31;23.60;99.90
11005;DHT22;5555;59.622;16.556;2022-09-12T12:26:00;23.80;99.90
11005;DHT22;5555;59.622;16.556;2022-09-12T12:31:08;24.40;99.90
11005;DHT22;5555;59.622;16.556;2022-09-12T12:36:06;24.00;99.90
11005;DHT22;5555;59.622;16.556;2022-09-12T12:38:34;22.70;99.90
11005;DHT22;5555;59.622;16.556;2022-09-12T12:43:48;22.50;99.90
11005;DHT22;5555;59.622;16.556;2022-09-12T12:46:19;22.00;99.90
11005;DHT22;5555;59.622;16.556;2022-09-12T12:57:28;21.50;99.90
11005;DHT22;5555;59.622;16.556;2022-09-12T13:00:01;20.80;99.90
11005;DHT22;5555;59.622;16.556;2022-09-12T13:02:35;20.30;99.90
11005;DHT22;5555;59.622;16.556;2022-09-12T13:05:06;20.10;99.90
11005;DHT22;5555;59.622;16.556;2022-09-12T13:07:40;20.00;99.90
11005;DHT22;5555;59.622;16.556;2022-09-12T13:10:23;19.80;99.90
11005;DHT22;5555;59.622;16.556;2022-09-12T13:12:52;19.70;99.90
11005;DHT22;5555;59.622;16.556;2022-09-12T13:18:14;19.60;99.90
11005;DHT22;5555;59.622;16.556;2022-09-12T13:20:48;19.50;99.90
11005;DHT22;5555;59.622;16.556;2022-09-12T13:23:25;19.40;99.90
11005;DHT22;5555;59.622;16.556;2022-09-12T13:25:58;19.30;99.90
11005;DHT22;5555;59.622;16.556;2022-09-12T13:28:26;19.30;99.90
11005;DHT22;5555;59.622;16.556;2022-09-12T13:30:56;19.40;99.90
11005;DHT22;5555;59.622;16.556;2022-09-12T13:39:13;19.70;99.90
11005;DHT22;5555;59.622;16.556;2022-09-12T13:44:30;21.40;99.90
11005;DHT22;5555;59.622;16.556;2022-09-12T13:47:02;22.40;99.90
11005;DHT22;5555;59.622;16.556;2022-09-12T13:52:07;22.70;99.90
11005;DHT22;5555;59.622;16.556;2022-09-12T13:54:36;22.90;99.90
11005;DHT22;5555;59.622;16.556;2022-09-12T13:57:03;23.00;99.90
11005;DHT22;5555;59.622;16.556;2022-09-12T13:59:39;22.80;99.90
11005;DHT22;5555;59.622;16.556;2022-09-12T14:02:22;22.80;99.90
11005;DHT22;5555;59.622;16.556;2022-09-12T14:04:51;21.90;99.90
11005;DHT22;5555;59.622;16.556;2022-09-12T14:07:56;21.70;99.90
11005;DHT22;5555;59.622;16.556;2022-09-12T14:10:34;22.30;99.90
11005;DHT22;5555;59.622;16.556;2022-09-12T14:13:18;22.70;99.90
11005;DHT22;5555;59.622;16.556;2022-09-12T14:15:46;22.70;99.90
11005;DHT22;5555;59.622;16.556;2022-09-12T14:18:29;22.60;99.90
11005;DHT22;5555;59.622;16.556;2022-09-12T14:21:05;22.50;99.90
11005;DHT22;5555;59.622;16.556;2022-09-12T14:23:42;22.50;99.90
11005;DHT22;5555;59.622;16.556;2022-09-12T14:26:11;22.20;99.90
11005;DHT22;5555;59.622;16.556;2022-09-12T14:28:41;22.10;99.90
11005;DHT22;5555;59.622;16.556;2022-09-12T14:33:50;23.90;99.90
11005;DHT22;5555;59.622;16.556;2022-09-12T14:36:54;23.40;99.90
11005;DHT22;5555;59.622;16.556;2022-09-12T14:39:37;22.70;99.90
11005;DHT22;5555;59.622;16.556;2022-09-12T14:42:13;22.40;99.90
11005;DHT22;5555;59.622;16.556;2022-09-12T14:44:54;22.10;99.90
11005;DHT22;5555;59.622;16.556;2022-09-12T14:47:23;21.80;99.90
11005;DHT22;5555;59.622;16.556;2022-09-12T14:49:50;21.30;99.90
11005;DHT22;5555;59.622;16.556;2022-09-12T14:52:30;21.60;99.90
11005;DHT22;5555;59.622;16.556;2022-09-12T14:55:03;23.00;99.90
11005;DHT22;5555;59.622;16.556;2022-09-12T14:57:32;24.30;99.90
11005;DHT22;5555;59.622;16.556;2022-09-12T15:00:24;24.50;99.90
11005;DHT22;5555;59.622;16.556;2022-09-12T15:02:51;24.80;99.90
11005;DHT22;5555;59.622;16.556;2022-09-12T15:05:20;23.50;99.90
11005;DHT22;5555;59.622;16.556;2022-09-12T15:07:50;23.20;99.90
11005;DHT22;5555;59.622;16.556;2022-09-12T15:15:36;20.40;99.90
11005;DHT22;5555;59.622;16.556;2022-09-12T15:18:02;19.80;99.90
11005;DHT22;5555;59.622;16.556;2022-09-12T15:20:29;19.60;99.90
11005;DHT22;5555;59.622;16.556;2022-09-12T15:22:55;19.50;99.90
11005;DHT22;5555;59.622;16.556;2022-09-12T15:25:21;19.50;99.90
11005;DHT22;5555;59.622;16.556;2022-09-12T15:27:47;19.40;99.90
11005;DHT22;5555;59.622;16.556;2022-09-12T15:30:14;19.30;99.90
11005;DHT22;5555;59.622;16.556;2022-09-12T15:32:42;19.50;99.90
11005;DHT22;5555;59.622;16.556;2022-09-12T15:35:17;19.50;99.90
11005;DHT22;5555;59.622;16.556;2022-09-12T15:37:43;19.40;99.90
11005;DHT22;5555;59.622;16.556;2022-09-12T15:40:10;19.50;99.90
11005;DHT22;5555;59.622;16.556;2022-09-12T15:42:36;19.50;99.90
11005;DHT22;5555;59.622;16.556;2022-09-12T15:45:08;19.30;99.90
11005;DHT22;5555;59.622;16.556;2022-09-12T15:47:37;19.30;99.90
11005;DHT22;5555;59.622;16.556;2022-09-12T15:50:03;19.30;99.90
11005;DHT22;5555;59.622;16.556;2022-09-12T15:52:29;19.30;99.90
11005;DHT22;5555;59.622;16.556;2022-09-12T15:54:56;19.20;99.90
11005;DHT22;5555;59.622;16.556;2022-09-12T15:57:21;19.20;99.90
11005;DHT22;5555;59.622;16.556;2022-09-12T15:59:47;18.90;99.90
11005;DHT22;5555;59.622;16.556;2022-09-12T16:02:12;18.80;99.90
11005;DHT22;5555;59.622;16.556;2022-09-12T16:04:38;18.70;99.90
11005;DHT22;5555;59.622;16.556;2022-09-12T16:07:04;18.70;99.90
11005;DHT22;5555;59.622;16.556;2022-09-12T16:09:29;18.70;99.90
11005;DHT22;5555;59.622;16.556;2022-09-12T16:11:55;18.40;99.90
11005;DHT22;5555;59.622;16.556;2022-09-12T16:14:21;18.30;99.90
11005;DHT22;5555;59.622;16.556;2022-09-12T16:16:53;18.30;99.90
11005;DHT22;5555;59.622;16.556;2022-09-12T16:19:19;18.20;99.90
11005;DHT22;5555;59.622;16.556;2022-09-12T16:21:45;18.10;99.90
11005;DHT22;5555;59.622;16.556;2022-09-12T16:24:11;18.00;99.90
11005;DHT22;5555;59.622;16.556;2022-09-12T16:26:37;18.00;99.90
11005;DHT22;5555;59.622;16.556;2022-09-12T16:29:02;17.80;99.90
11005;DHT22;5555;59.622;16.556;2022-09-12T16:31:28;17.70;99.90
11005;DHT22;5555;59.622;16.556;2022-09-12T16:33:54;17.60;99.90
11005;DHT22;5555;59.622;16.556;2022-09-12T16:36:20;17.40;99.90
11005;DHT22;5555;59.622;16.556;2022-09-12T16:38:48;17.30;99.90
11005;DHT22;5555;59.622;16.556;2022-09-12T16:41:14;17.10;99.90
11005;DHT22;5555;59.622;16.556;2022-09-12T16:43:42;17.10;99.90
11005;DHT22;5555;59.622;16.556;2022-09-12T16:46:16;17.10;99.90
11005;DHT22;5555;59.622;16.556;2022-09-12T16:48:44;17.00;99.90
11005;DHT22;5555;59.622;16.556;2022-09-12T16:51:12;16.90;99.90
11005;DHT22;5555;59.622;16.556;2022-09-12T16:53:38;16.80;99.90
11005;DHT22;5555;59.622;16.556;2022-09-12T16:56:04;16.70;99.90
11005;DHT22;5555;59.622;16.556;2022-09-12T16:58:39;16.70;99.90
11005;DHT22;5555;59.622;16.556;2022-09-12T17:01:17;16.60;99.90
11005;DHT22;5555;59.622;16.556;2022-09-12T17:03:43;16.50;99.90
11005;DHT22;5555;59.622;16.556;2022-09-12T17:06:16;16.40;99.90
11005;DHT22;5555;59.622;16.556;2022-09-12T17:08:47;16.30;99.90
11005;DHT22;5555;59.622;16.556;2022-09-12T17:11:16;16.30;99.90
11005;DHT22;5555;59.622;16.556;2022-09-12T17:13:46;16.20;99.90
11005;DHT22;5555;59.622;16.556;2022-09-12T17:16:12;16.10;99.90
11005;DHT22;5555;59.622;16.556;2022-09-12T17:18:38;16.10;99.90
11005;DHT22;5555;59.622;16.556;2022-09-12T17:21:08;16.10;99.90
11005;DHT22;5555;59.622;16.556;2022-09-12T17:23:34;16.00;99.90
11005;DHT22;5555;59.622;16.556;2022-09-12T17:26:00;16.00;99.90
11005;DHT22;5555;59.622;16.556;2022-09-12T17:28:26;16.00;99.90
11005;DHT22;5555;59.622;16.556;2022-09-12T17:30:56;15.90;99.90
11005;DHT22;5555;59.622;16.556;2022-09-12T17:33:23;15.90;99.90
11005;DHT22;5555;59.622;16.556;2022-09-12T17:35:49;15.80;99.90
11005;DHT22;5555;59.622;16.556;2022-09-12T17:38:14;15.80;99.90
11005;DHT22;5555;59.622;16.556;2022-09-12T17:40:41;15.80;99.90
11005;DHT22;5555;59.622;16.556;2022-09-12T17:43:07;15.80;99.90
11005;DHT22;5555;59.622;16.556;2022-09-12T17:45:32;15.80;99.90
11005;DHT22;5555;59.622;16.556;2022-09-12T17:47:58;15.70;99.90
11005;DHT22;5555;59.622;16.556;2022-09-12T17:50:24;15.70;99.90
11005;DHT22;5555;59.622;16.556;2022-09-12T17:52:49;15.70;99.90
11005;DHT22;5555;59.622;16.556;2022-09-12T17:55:15;15.70;99.90
11005;DHT22;5555;59.622;16.556;2022-09-12T17:57:41;15.70;99.90
11005;DHT22;5555;59.622;16.556;2022-09-12T18:00:10;15.60;99.90
11005;DHT22;5555;59.622;16.556;2022-09-12T18:02:36;15.60;99.90
11005;DHT22;5555;59.622;16.556;2022-09-12T18:05:02;15.60;99.90
11005;DHT22;5555;59.622;16.556;2022-09-12T18:07:31;15.60;99.90
11005;DHT22;5555;59.622;16.556;2022-09-12T18:09:57;15.60;99.90
11005;DHT22;5555;59.622;16.556;2022-09-12T18:12:23;15.60;99.90
11005;DHT22;5555;59.622;16.556;2022-09-12T18:14:49;15.60;99.90
11005;DHT22;5555;59.622;16.556;2022-09-12T18:17:15;15.50;99.90
11005;DHT22;5555;59.622;16.556;2022-09-12T18:19:41;15.50;99.90
11005;DHT22;5555;59.622;16.556;2022-09-12T18:22:07;15.60;99.90
11005;DHT22;5555;59.622;16.556;2022-09-12T18:24:34;15.60;99.90
11005;DHT22;5555;59.622;16.556;2022-09-12T18:27:00;15.60;99.90
11005;DHT22;5555;59.622;16.556;2022-09-12T18:29:26;15.60;99.90
11005;DHT22;5555;59.622;16.556;2022-09-12T18:31:52;15.60;99.90
11005;DHT22;5555;59.622;16.556;2022-09-12T18:34:19;15.60;99.90